createdAt,value
2018-01-07T20:28:00.988Z,11.20
2018-01-07T20:32:50.153Z,10.87
2018-01-07T20:35:19.244Z,9.70
2018-01-07T20:37:48.046Z,10.93
2018-01-07T20:40:16.747Z,10.70
2018-01-07T20:42:46.408Z,10.50
2018-01-07T20:45:15.271Z,9.40
2018-01-07T20:47:43.957Z,11.10
2018-01-07T20:50:14.329Z,9.50
2018-01-07T20:52:42.995Z,9.00
2018-01-07T20:55:11.730Z,9.90
2018-01-07T20:57:40.454Z,9.97
2018-01-07T21:00:09.118Z,9.60
2018-01-07T21:02:38.026Z,9.80
2018-01-07T21:05:06.905Z,10.00
2018-01-07T21:07:35.568Z,9.20
2018-01-07T21:10:06.087Z,8.70
2018-01-07T21:12:34.722Z,10.33
2018-01-07T21:15:05.297Z,8.60
2018-01-07T21:17:33.893Z,8.20
2018-01-07T21:20:02.645Z,8.60
2018-01-07T21:22:32.367Z,8.87
2018-01-07T21:25:01.453Z,7.33
2018-01-07T21:27:30.548Z,8.10
2018-01-07T21:29:59.350Z,8.30
2018-01-07T21:32:28.167Z,8.17
2018-01-07T21:34:57.566Z,7.37
2018-01-07T21:37:26.254Z,7.33
2018-01-07T21:39:55.631Z,9.00
2018-01-07T21:42:24.491Z,8.17
2018-01-07T21:44:55.213Z,7.17
2018-01-07T21:47:23.865Z,7.43
2018-01-07T21:49:52.521Z,8.57
2018-01-07T21:52:21.957Z,7.20
2018-01-07T21:54:50.621Z,9.40
2018-01-07T21:57:21.307Z,7.70
2018-01-07T21:59:59.654Z,6.90
2018-01-07T22:02:29.611Z,7.33
2018-01-07T22:05:00.182Z,7.70
2018-01-07T22:07:38.439Z,7.70
2018-01-07T22:10:07.218Z,8.00
2018-01-07T22:12:36.250Z,7.40
2018-01-07T22:15:05.760Z,7.80
2018-01-07T22:17:34.394Z,6.87
2018-01-07T22:20:03.055Z,7.53
2018-01-07T22:22:31.852Z,7.20
2018-01-07T22:25:00.534Z,5.93
2018-01-07T22:27:30.166Z,6.33
2018-01-07T22:29:58.902Z,7.47
2018-01-07T22:32:27.656Z,6.10
2018-01-07T22:34:56.462Z,6.80
2018-01-07T22:37:25.285Z,6.53
2018-01-07T22:39:54.814Z,6.33
2018-01-07T22:42:23.586Z,6.50
2018-01-07T22:44:52.269Z,6.20
2018-01-07T22:47:26.372Z,5.60
2018-01-07T22:49:55.749Z,5.83
2018-01-07T22:52:24.542Z,6.30
2018-01-07T22:54:53.417Z,6.13
2018-01-07T22:57:22.286Z,7.17
2018-01-07T22:59:50.933Z,6.23
2018-01-07T23:02:21.026Z,6.37
